Alpental, Washington
Current Conditions -  °F | °C
As of 1:53 PM on Friday 24 Oct 2014 (Local Time) from KRNT Reporting Station
Clear Clear  
Wind Chill: 57°   Ceiling: Unl
Heat Index: 57°   Visibility: 10mi
Dew Point: 51°   Wind: 7mph
Humidity: 81%   Direction: 320°NW
Pressure: 29.96"   Gusts: NA
Location:  47.4076°N, 121.414°W
Report Text: KRNT 242053Z 32006KT 10SM CLR 14/11 A2996 RMK AO2 SLP151 T01390106 58024
Loading
Personal Weather Stations






























Interactive Weather Map
Tropical Storm Tracking
New forecast layout! Learn more

10-Day Weather Forecast

Advertisements
Track Severe Weather on mobile